Terminal Aerodrome Forecast
Issued by NWS

Home | Current Version | Previous Version | Graphics & Text | Print | Product List | Glossary On
Versions: 1 2 3 4 5 6 7 8 9 10 11
000
FTUS42 KMHX 180533
TAFOAJ
TAF
KOAJ 180533Z 1806/1906 34010G16KT 3SM -SN BR SCT005 OVC012
     FM180730 34010KT P6SM BKN020
     FM181000 33009KT P6SM BKN070
     FM181800 29009KT P6SM SKC
      AMD LTD TO CLD VIS AND WIND=

USA.gov is the U.S. government's official web portal to all federal, state and local government web resources and services.